地図

経路データ

SID SEASON NUMBER BASIN SUBBASIN NAME ISO_TIME NATURE LAT LON WMO_WIND WMO_PRES WMO_AGENCY TRACK_TYPE DIST2LAND LANDFALL IFLAG USA_AGENCY USA_ATCF_ID USA_LAT USA_LON USA_RECORD USA_STATUS USA_WIND USA_PRES USA_SSHS USA_R34_NE USA_R34_SE USA_R34_SW USA_R34_NW USA_R50_NE USA_R50_SE USA_R50_SW USA_R50_NW USA_R64_NE USA_R64_SE USA_R64_SW USA_R64_NW USA_POCI USA_ROCI USA_RMW USA_EYE TOKYO_LAT TOKYO_LON TOKYO_GRADE TOKYO_WIND TOKYO_PRES TOKYO_R50_DIR TOKYO_R50_LONG TOKYO_R50_SHORT TOKYO_R30_DIR TOKYO_R30_LONG TOKYO_R30_SHORT TOKYO_LAND CMA_LAT CMA_LON CMA_CAT CMA_WIND CMA_PRES HKO_LAT HKO_LON HKO_CAT HKO_WIND HKO_PRES NEWDELHI_LAT NEWDELHI_LON NEWDELHI_GRADE NEWDELHI_WIND NEWDELHI_PRES NEWDELHI_CI NEWDELHI_DP NEWDELHI_POCI REUNION_LAT REUNION_LON REUNION_TYPE REUNION_WIND REUNION_PRES REUNION_TNUM REUNION_CI REUNION_RMW REUNION_R34_NE REUNION_R34_SE REUNION_R34_SW REUNION_R34_NW REUNION_R50_NE REUNION_R50_SE REUNION_R50_SW REUNION_R50_NW REUNION_R64_NE REUNION_R64_SE REUNION_R64_SW REUNION_R64_NW BOM_LAT BOM_LON BOM_TYPE BOM_WIND BOM_PRES BOM_TNUM BOM_CI BOM_RMW BOM_R34_NE BOM_R34_SE BOM_R34_SW BOM_R34_NW BOM_R50_NE BOM_R50_SE BOM_R50_SW BOM_R50_NW BOM_R64_NE BOM_R64_SE BOM_R64_SW BOM_R64_NW BOM_ROCI BOM_POCI BOM_EYE BOM_POS_METHOD BOM_PRES_METHOD NADI_LAT NADI_LON NADI_CAT NADI_WIND NADI_PRES WELLINGTON_LAT WELLINGTON_LON WELLINGTON_WIND WELLINGTON_PRES DS824_LAT DS824_LON DS824_STAGE DS824_WIND DS824_PRES TD9636_LAT TD9636_LON TD9636_STAGE TD9636_WIND TD9636_PRES TD9635_LAT TD9635_LON TD9635_WIND TD9635_PRES TD9635_ROCI NEUMANN_LAT NEUMANN_LON NEUMANN_CLASS NEUMANN_WIND NEUMANN_PRES MLC_LAT MLC_LON MLC_CLASS MLC_WIND MLC_PRES USA_GUST BOM_GUST BOM_GUST_PER REUNION_GUST REUNION_GUST_PER USA_SEAHGT USA_SEARAD_NE USA_SEARAD_SE USA_SEARAD_SW USA_SEARAD_NW STORM_SPEED STORM_DIR
1978236N11245 1978 74 EP MM MIRIAM 1978-08-23 15:00:00 NR 10.9000 -114.900 main 1424 1424 __________O___ -1 10.9000 -114.900 1 25 6 253
1978236N11245 1978 74 EP MM MIRIAM 1978-08-23 18:00:00 TS 10.8029 -115.214 25 hurdat_epa main 1455 1455 O________OP___ hurdat_epa EP131978 10.8000 -115.200 TD 25 -1 10.8000 -115.200 TC 25 10.8088 -115.241 1 26 7 256
1978236N11245 1978 74 EP MM MIRIAM 1978-08-23 21:00:00 TS 10.7367 -115.590 main 1489 1487 P________PP___ EP131978 10.7276 -115.585 TD 27 -1 10.7276 -115.585 TC 27 10.7609 -115.601 1 28 8 270
1978236N11245 1978 74 EP MM MIRIAM 1978-08-24 00:00:00 TS 10.8000 -116.000 30 hurdat_epa main 1496 1490 O________OO___ hurdat_epa EP131978 10.8000 -116.000 TD 30 -1 10.8000 -116.000 TC 30 10.8000 -116.000 1 30 9 291
1978236N11245 1978 74 EP MM MIRIAM 1978-08-24 03:00:00 TS 11.0641 -116.467 main 1489 1484 P________PP___ EP131978 11.0924 -116.470 TD 30 -1 11.0924 -116.470 TC 30 10.9509 -116.454 1 30 11 300
1978236N11245 1978 74 EP MM MIRIAM 1978-08-24 06:00:00 TS 11.3527 -116.994 30 hurdat_epa main 1485 1485 O________OP___ hurdat_epa EP131978 11.4000 -117.000 TD 30 -1 11.4000 -117.000 TC 30 11.1637 -116.970 1 30 12 292
1978236N11245 1978 74 EP MM MIRIAM 1978-08-24 09:00:00 TS 11.5057 -117.554 main 1508 1508 P________PP___ EP131978 11.5397 -117.555 TD 30 -1 11.5397 -117.555 TC 30 11.3697 -117.551 1 30 12 277
1978236N11245 1978 74 EP MM MIRIAM 1978-08-24 12:00:00 TS 11.5000 -118.200 30 hurdat_epa main 1543 1543 O________OO___ hurdat_epa EP131978 11.5000 -118.200 TD 30 -1 11.5000 -118.200 TC 30 11.5000 -118.200 1 30 14 259
1978236N11245 1978 74 EP MM MIRIAM 1978-08-24 15:00:00 TS 11.2441 -118.960 main 1620 1620 P________PP___ EP131978 11.2001 -118.978 TD 30 -1 11.2001 -118.978 TC 30 11.4203 -118.888 1 30 16 251
1978236N11245 1978 74 EP MM MIRIAM 1978-08-24 18:00:00 TS 10.9729 -119.768 30 hurdat_epa main 1689 1689 O________OP___ hurdat_epa EP131978 10.9000 -119.800 TD 30 -1 10.9000 -119.800 TC 30 11.2644 -119.640 1 30 16 259
1978236N11245 1978 74 EP MM MIRIAM 1978-08-24 21:00:00 TS 10.9320 -120.523 main 1745 1745 P________PP___ EP131978 10.8896 -120.542 TD 30 -1 10.8896 -120.542 TC 30 11.1013 -120.447 1 30 15 271
1978236N11245 1978 74 EP MM MIRIAM 1978-08-25 00:00:00 TS 11.0000 -121.300 30 hurdat_epa main 1792 1792 O________OO___ hurdat_epa EP131978 11.0000 -121.300 TD 30 -1 11.0000 -121.300 TC 30 11.0000 -121.300 1 30 16 275
1978236N11245 1978 74 EP MM MIRIAM 1978-08-25 03:00:00 TS 11.0775 -122.124 main 1841 1841 P________PP___ EP131978 11.0847 -122.113 TD 27 -1 11.0847 -122.113 TC 27 11.0486 -122.169 1 28 17 277
1978236N11245 1978 74 EP MM MIRIAM 1978-08-25 06:00:00 TS 11.1933 -123.016 25 hurdat_epa main 1898 1898 O________OP___ hurdat_epa EP131978 11.2000 -123.000 TD 25 -1 11.2000 -123.000 TC 25 11.1667 -123.082 1 27 18 278
1978236N11245 1978 74 EP MM MIRIAM 1978-08-25 09:00:00 TS 11.3332 -123.988 main 1954 1952 P________PP___ EP131978 11.3349 -123.978 TD 25 -1 11.3349 -123.978 TC 25 11.3265 -124.029 1 26 20 279
1978236N11245 1978 74 EP MM MIRIAM 1978-08-25 12:00:00 TS 11.5000 -125.000 25 hurdat_epa main 2007 2007 O________OO___ hurdat_epa EP131978 11.5000 -125.000 TD 25 -1 11.5000 -125.000 TC 25 11.5000 -125.000 1 25 20 280
1978236N11245 1978 74 EP MM MIRIAM 1978-08-25 15:00:00 TS 11.6951 -126.004 main 2063 2063 P________PP___ EP131978 11.7072 -126.000 TD 25 -1 11.7072 -126.000 TC 25 11.6471 -126.019 1 25 20 281
1978236N11245 1978 74 EP MM MIRIAM 1978-08-25 18:00:00 TS 11.8801 -127.010 25 hurdat_epa main 2123 2123 O________OP___ hurdat_epa EP131978 11.9000 -127.000 TD 25 -1 11.9000 -127.000 TC 25 11.8005 -127.052 1 25 20 278
1978236N11245 1978 74 EP MM MIRIAM 1978-08-25 21:00:00 TS 11.9848 -128.048 main 2193 2193 P________PP___ EP131978 11.9926 -128.045 TD 25 -1 11.9926 -128.045 TC 25 11.9535 -128.059 1 25 20 276
1978236N11245 1978 74 EP MM MIRIAM 1978-08-26 00:00:00 TS 12.1000 -129.000 25 hurdat_epa main 2267 2267 O________OO___ hurdat_epa EP131978 12.1000 -129.000 TD 25 -1 12.1000 -129.000 TC 25 12.1000 -129.000 1 25 17 282
1978236N11245 1978 74 EP MM MIRIAM 1978-08-26 03:00:00 TS 12.3368 -129.750 main 2302 2301 P________PP___ EP131978 12.3643 -129.730 TD 25 -1 12.3643 -129.730 TC 25 12.2266 -129.830 1 15 288
1978236N11245 1978 74 EP MM MIRIAM 1978-08-26 06:00:00 TS 12.5496 -130.438 25 hurdat_epa main 2334 2333 O________OP___ hurdat_epa EP131978 12.6000 -130.400 TD 25 -1 12.6000 -130.400 TC 25 12.3480 -130.590 1 15 280
1978236N11245 1978 74 EP MM MIRIAM 1978-08-26 09:00:00 TS 12.5921 -131.215 main 2384 2384 P________PP___ EP131978 12.6225 -131.193 TD 25 -1 12.6225 -131.193 TC 25 12.4706 -131.305 1 15 272
1978236N11245 1978 74 EP MM MIRIAM 1978-08-26 12:00:00 TS 12.6000 -132.000 25 hurdat_epa main 2443 2443 O________OO___ hurdat_epa EP131978 12.6000 -132.000 TD 25 -1 12.6000 -132.000 TC 25 12.6000 -132.000 1 15 274
1978236N11245 1978 74 EP MM MIRIAM 1978-08-26 15:00:00 TS 12.6884 -132.762 main 2468 2403 P________PP___ EP131978 12.6698 -132.773 TD 25 -1 12.6698 -132.773 TC 25 12.7624 -132.718 1 15 279
1978236N11245 1978 74 EP MM MIRIAM 1978-08-26 18:00:00 TS 12.8258 -133.484 25 hurdat_epa main 2393 2324 O________OP___ hurdat_epa EP131978 12.8000 -133.500 TD 25 -1 12.8000 -133.500 TC 25 12.9291 -133.422 1 14 283
1978236N11245 1978 74 EP MM MIRIAM 1978-08-26 21:00:00 TS 13.0100 -134.155 main 2314 2245 P________PP___ EP131978 12.9922 -134.165 TD 30 -1 12.9922 -134.165 TC 30 13.0812 -134.115 1 13 286
1978236N11245 1978 74 EP MM MIRIAM 1978-08-27 00:00:00 TS 13.2000 -134.800 35 hurdat_epa main 2245 2177 O________OO___ hurdat_epa EP131978 13.2000 -134.800 TS 35 0 13.2000 -134.800 TC 35 13.2000 -134.800 2 35 13 286
1978236N11245 1978 74 EP MM MIRIAM 1978-08-27 03:00:00 TS 13.3703 -135.452 main 2167 2102 P________PP___ EP131978 13.3948 -135.442 TS 35 0 13.3948 -135.442 TC 35 13.2726 -135.491 2 35 13 282
1978236N11245 1978 74 EP MM MIRIAM 1978-08-27 06:00:00 TS 13.4619 -136.115 35 hurdat_epa main 2102 2036 O________OP___ hurdat_epa EP131978 13.5000 -136.100 TS 35 0 13.5000 -136.100 TC 35 13.3094 -136.173 2 35 13 273
1978236N11245 1978 74 EP MM MIRIAM 1978-08-27 09:00:00 TS 13.4372 -136.809 main 2036 1970 P________PP___ EP131978 13.4674 -136.800 TS 35 0 13.4674 -136.800 TC 35 13.3164 -136.844 2 35 14 263
1978236N11245 1978 74 EP MM MIRIAM 1978-08-27 12:00:00 TS 13.3000 -137.500 35 hurdat_epa main 1970 1919 O________OO___ hurdat_epa EP131978 13.3000 -137.500 TS 35 0 13.3000 -137.500 TC 35 13.3000 -137.500 2 35 14 252
1978236N11245 1978 74 EP MM MIRIAM 1978-08-27 15:00:00 TS 13.0217 -138.163 main 1914 1865 P________PP___ EP131978 12.9623 -138.166 TS 35 0 12.9623 -138.166 TC 35 13.2589 -138.152 2 40 14 248
1978236N11245 1978 74 EP MM MIRIAM 1978-08-27 18:00:00 TS 12.7999 -138.798 35 hurdat_epa main 1865 1801 O________OP___ hurdat_epa EP131978 12.7000 -138.800 TS 35 0 12.7000 -138.800 TC 35 13.1995 -138.788 2 45 12 263
1978236N11245 1978 74 EP MM MIRIAM 1978-08-27 21:00:00 TS 12.8718 -139.389 main 1801 1738 P________PP___ EP131978 12.8046 -139.384 TS 45 0 12.8046 -139.384 TC 45 13.1403 -139.405 2 50 12 281
1978236N11245 1978 74 EP CP MIRIAM 1978-08-28 00:00:00 TS 13.0238 -140.000 55 hurdat_epa main 1738 1680 O________OO___ hurdat_epa EP131978 13.0000 -140.000 TS 55 0 13.0000 -140.000 TC 55 13.1000 -140.000 2 55 13 277
1978236N11245 1978 74 EP CP MIRIAM 1978-08-28 03:00:00 TS 13.0223 -140.684 main 1671 1604 P________PP___ EP131978 12.9925 -140.728 TS 57 0 12.9925 -140.728 TC 57 13.0292 -140.536 2 55 14 271
1978236N11245 1978 74 EP CP MIRIAM 1978-08-28 06:00:00 TS 13.0506 -141.397 60 hurdat_epa main 1598 1526 O________OP___ hurdat_epa EP131978 13.0000 -141.500 TS 60 0 13.0000 -141.500 TC 60 12.9908 -141.057 2 55 14 277
1978236N11245 1978 74 EP CP MIRIAM 1978-08-28 09:00:00 TS 13.1987 -142.133 main 1526 1449 P________PP___ EP131978 13.1476 -142.287 TS 65 1 13.1476 -142.287 TC 65 13.0321 -141.600 2 55 15 285
1978236N11245 1978 74 EP CP MIRIAM 1978-08-28 12:00:00 TS 13.4333 -142.833 70 hurdat_epa main 1449 1376 O________OO___ hurdat_epa EP131978 13.4000 -143.000 HU 70 1 13.4000 -143.000 TC 70 13.2000 -142.200 2 55 14 294
1978236N11245 1978 74 EP CP MIRIAM 1978-08-28 15:00:00 TS 13.7613 -143.408 main 1371 1307 P________PP___ EP131978 13.7045 -143.515 HU 72 1 13.7045 -143.515 TC 72 13.6150 -142.915 2 53 13 304
1978236N11245 1978 74 EP CP MIRIAM 1978-08-28 18:00:00 TS 14.1738 -143.966 75 hurdat_epa main 1293 1209 O________OP___ hurdat_epa EP131978 14.1000 -144.000 HU 75 1 14.1000 -144.000 TC 75 14.1430 -143.693 2 52 15 308
1978236N11245 1978 74 EP CP MIRIAM 1978-08-28 21:00:00 TS 14.6820 -144.622 main 1209 1122 P________PP___ EP131978 14.6451 -144.634 HU 77 1 14.6451 -144.634 TC 77 14.6744 -144.500 2 51 16 306
1978236N11245 1978 74 EP CP MIRIAM 1978-08-29 00:00:00 TS 15.1000 -145.300 80 hurdat_epa main 1122 1059 O________OO___ hurdat_epa EP131978 15.1000 -145.300 HU 80 1 15.1000 -145.300 TC 80 15.1000 -145.300 2 50 14 293
1978236N11245 1978 74 EP CP MIRIAM 1978-08-29 03:00:00 TS 15.2307 -145.943 main 1059 994 P________PP___ EP131978 15.2247 -145.901 HU 75 1 15.2247 -145.901 TC 75 15.2555 -146.070 2 48 13 276
1978236N11245 1978 74 EP CP MIRIAM 1978-08-29 06:00:00 TS 15.2329 -146.587 70 hurdat_epa main 994 939 O________OP___ hurdat_epa EP131978 15.2000 -146.500 HU 70 1 15.2000 -146.500 TC 70 15.2971 -146.820 2 47 13 270
1978236N11245 1978 74 EP CP MIRIAM 1978-08-29 09:00:00 TS 15.2232 -147.250 main 930 869 P________PP___ EP131978 15.1248 -147.136 HU 65 1 15.1999 -147.143 TC 65 15.2901 -147.535 2 46 13 272
1978236N11245 1978 74 EP CP MIRIAM 1978-08-29 12:00:00 TS 15.2667 -147.917 60 hurdat_epa main 869 795 O________OO___ hurdat_epa EP131978 15.2000 -147.800 TS 60 0 15.2000 -147.800 TC 60 15.3000 -148.200 2 45 13 282
1978236N11245 1978 74 EP CP MIRIAM 1978-08-29 15:00:00 TS 15.5006 -148.588 main 795 730 P________PP___ EP131978 15.7876 -148.521 TS 55 0 15.2124 -148.465 TC 55 15.4035 -148.776 2 45 13 291
1978236N11245 1978 74 EP CP MIRIAM 1978-08-29 18:00:00 TS 15.7396 -149.218 50 hurdat_epa main 730 680 O________OP___ hurdat_epa EP131978 16.3000 -149.200 TS 50 0 15.3000 -149.100 TC 50 15.5379 -149.308 2 45 12 283
1978236N11245 1978 74 EP CP MIRIAM 1978-08-29 21:00:00 TS 15.7699 -149.759 main 672 639 P________PP___ EP131978 16.0646 -149.732 TS 47 0 15.4898 -149.673 TC 47 15.7035 -149.836 2 45 10 275
1978236N11245 1978 74 EP CP MIRIAM 1978-08-30 00:00:00 TS 15.8333 -150.267 45 hurdat_epa main 631 561 O________OO___ hurdat_epa EP131978 15.8000 -150.200 TS 45 0 15.8000 -150.200 TC 45 15.9000 -150.400 2 45 11 293
1978236N11245 1978 74 EP CP MIRIAM 1978-08-30 03:00:00 TS 16.1793 -150.785 main 561 499 P________PP___ EP131978 16.1896 -150.662 TS 45 0 16.2645 -150.670 TC 45 16.2030 -151.079 2 45 13 304
1978236N11245 1978 74 EP CP MIRIAM 1978-08-30 06:00:00 TS 16.5535 -151.366 45 hurdat_epa main 484 422 O________OP___ hurdat_epa EP131978 16.7000 -151.200 TS 45 0 16.7000 -151.200 TC 45 16.5207 -151.797 2 45 14 296
1978236N11245 1978 74 EP CP MIRIAM 1978-08-30 09:00:00 TS 16.7940 -152.087 main 414 363 P________PP___ EP131978 16.9927 -151.927 TS 45 0 16.9927 -151.927 TC 45 16.7780 -152.516 2 45 14 281
1978236N11245 1978 74 EP CP MIRIAM 1978-08-30 12:00:00 TS 16.8167 -152.833 45 hurdat_epa main 363 347 O________OO___ hurdat_epa EP131978 17.0000 -152.700 TS 45 0 17.0000 -152.700 TC 45 16.9000 -153.200 2 45 14 256
1978236N11245 1978 74 EP CP MIRIAM 1978-08-30 15:00:00 TS 16.4755 -153.465 main 351 351 P________PP___ EP131978 16.5371 -153.359 TS 45 0 16.5371 -153.359 TC 45 16.7550 -153.743 2 45 14 238
1978236N11245 1978 74 EP CP MIRIAM 1978-08-30 18:00:00 TS 16.0632 -154.075 45 hurdat_epa main 356 352 O________OP___ hurdat_epa EP131978 16.0000 -154.000 TS 45 0 16.0000 -154.000 TC 45 16.4793 -154.251 2 45 13 244
1978236N11245 1978 74 EP CP MIRIAM 1978-08-30 21:00:00 TS 15.8950 -154.713 main 352 341 P________PP___ EP131978 15.8247 -154.677 TS 45 0 15.8247 -154.677 TC 45 16.1642 -154.783 2 45 13 260
1978236N11245 1978 74 EP CP MIRIAM 1978-08-31 00:00:00 TS 15.8333 -155.400 45 hurdat_epa main 348 346 O________OO___ hurdat_epa EP131978 15.8000 -155.400 TS 45 0 15.8000 -155.400 TC 45 15.9000 -155.400 2 45 14 266
1978236N11245 1978 74 EP CP MIRIAM 1978-08-31 03:00:00 TS 15.8018 -156.168 main 350 350 P________PP___ EP131978 15.7848 -156.177 TS 42 0 15.7848 -156.177 TC 42 15.8568 -156.228 2 42 15 269
1978236N11245 1978 74 EP CP MIRIAM 1978-08-31 06:00:00 TS 15.7946 -156.990 40 hurdat_epa main 373 373 O________OP___ hurdat_epa EP131978 15.8000 -157.000 TS 40 0 15.8000 -157.000 TC 40 15.8676 -157.140 2 40 16 271
1978236N11245 1978 74 EP CP MIRIAM 1978-08-31 09:00:00 TS 15.8182 -157.850 main 412 412 P________PP___ EP131978 15.8600 -157.864 TS 37 0 15.8600 -157.864 TC 37 15.8693 -158.056 2 37 16 268
1978236N11245 1978 74 EP CP MIRIAM 1978-08-31 12:00:00 TS 15.7500 -158.683 35 hurdat_epa main 470 470 O________OO___ hurdat_epa EP131978 15.8000 -158.700 TS 35 0 15.8000 -158.700 TC 35 15.8000 -158.900 2 35 16 257
1978236N11245 1978 74 EP CP MIRIAM 1978-08-31 15:00:00 TS 15.4667 -159.422 main 547 547 P________PP___ EP131978 15.4371 -159.423 TS 32 -1 15.4371 -159.423 TC 32 15.6147 -159.610 2 32 15 244
1978236N11245 1978 74 EP CP MIRIAM 1978-08-31 18:00:00 TS 15.0954 -160.096 30 hurdat_epa main 632 632 O________OP___ hurdat_epa EP131978 15.0000 -160.100 TD 30 -1 15.0000 -160.100 TC 30 15.3312 -160.205 2 30 15 241
1978236N11245 1978 74 EP CP MIRIAM 1978-08-31 21:00:00 TS 14.7594 -160.754 main 709 709 P________PP___ EP131978 14.6897 -160.792 TD 27 -1 14.6897 -160.792 TC 27 14.9821 -160.722 2 27 14 246
1978236N11245 1978 74 EP CP MIRIAM 1978-09-01 00:00:00 TS 14.5238 -161.429 25 hurdat_epa main 779 779 O________OO___ hurdat_epa EP131978 14.5000 -161.500 TD 25 -1 14.5000 -161.500 TC 25 14.6000 -161.200 1 25 14 259
1978236N11245 1978 74 EP CP MIRIAM 1978-09-01 03:00:00 TS 14.4864 -162.171 main 845 845 P________P____ EP131978 14.4548 -162.242 TD 25 -1 14.4548 -162.242 TC 25 1 15 270
1978236N11245 1978 74 EP CP MIRIAM 1978-09-01 06:00:00 TS 14.5316 -162.937 25 hurdat_epa main 900 898 O________O____ hurdat_epa EP131978 14.5000 -163.000 TD 25 -1 14.5000 -163.000 TC 25 1 15 274
1978236N11245 1978 74 EP CP MIRIAM 1978-09-01 09:00:00 TS 14.6008 -163.687 main 924 924 P________P____ EP131978 14.5946 -163.734 TD 25 -1 14.5946 -163.734 TC 25 1 15 272
1978236N11245 1978 74 EP CP MIRIAM 1978-09-01 12:00:00 TS 14.5941 -164.471 25 hurdat_epa main 965 965 O________O____ hurdat_epa EP131978 14.6000 -164.500 TD 25 -1 14.6000 -164.500 TC 25 16 260
1978236N11245 1978 74 EP CP MIRIAM 1978-09-01 15:00:00 TS 14.3221 -165.313 main 1038 1038 P________P____ EP131978 14.3221 -165.313 TD 25 -1 14.3221 -165.313 TC 25 18 250
1978236N11245 1978 74 EP CP MIRIAM 1978-09-01 18:00:00 TS 14.0000 -166.200 25 hurdat_epa main 1121 1121 O________O____ hurdat_epa EP131978 14.0000 -166.200 TD 25 -1 14.0000 -166.200 TC 25 19 255
1978236N11245 1978 74 EP CP MIRIAM 1978-09-01 21:00:00 TS 13.8435 -167.174 main 1205 1205 P________P____ EP131978 13.8435 -167.174 TD 25 -1 13.8435 -167.174 TC 25 20 264
1978236N11245 1978 74 EP CP MIRIAM 1978-09-02 00:00:00 TS 13.8000 -168.200 25 hurdat_epa main 1276 O________O____ hurdat_epa EP131978 13.8000 -168.200 TD 25 -1 13.8000 -168.200 TC 25 20 268

IBTrACS Databaseについて

本データベースは、米国NOAAが公開する1842年以降の世界の熱帯低気圧のベストトラックデータアーカイブInternational Best Track Archive for Climate Stewardship (IBTrACS)を、ウェブで閲覧しやすい形式に変換したものです。

最終更新日:2021-10-25